LHA4MK KBFI-CYKA
Flight info
| Callsign | LHA4MK |
|---|---|
| Flight time | 0h 51m |
| Altitude | 29000 |
| Route | ALPSE DCT YDC T695 VOLOX |
| Aircraft | A320/M-SDE1E2FGIJ1RWYZE3/LB1 |
Departure
| Time | 2026-04-27 11:47 |
|---|---|
| Airport | King County International Airport - Boeing Field (KBFI) |
Arrival
| Time | 2026-04-27 12:38 |
|---|---|
| Airport | Kamloops John Moose Fulton Field Regional Airport (CYKA) |
| Time | Latitude | Longitude | Altitude | Speed | Heading |
|---|---|---|---|---|---|
| 2026-04-27 11:10 | 47.51470 | -122.29243 | 24 ft | 0 kts | 66° |
| 2026-04-27 11:37 | 47.51462 | -122.29270 | 24 ft | 4 kts | 72° |
| 2026-04-27 11:38 | 47.51456 | -122.29308 | 24 ft | 4 kts | 77° |
| 2026-04-27 11:38 | 47.51450 | -122.29338 | 24 ft | 4 kts | 17° |
| 2026-04-27 11:38 | 47.51451 | -122.29341 | 24 ft | 0 kts | 336° |
| 2026-04-27 11:40 | 47.51451 | -122.29342 | 24 ft | 0 kts | 336° |
| 2026-04-27 11:41 | 47.51463 | -122.29350 | 24 ft | 3 kts | 335° |
| 2026-04-27 11:41 | 47.51504 | -122.29375 | 24 ft | 9 kts | 337° |
| 2026-04-27 11:41 | 47.51568 | -122.29415 | 24 ft | 11 kts | 337° |
| 2026-04-27 11:41 | 47.51619 | -122.29407 | 24 ft | 7 kts | 91° |
| 2026-04-27 11:42 | 47.51634 | -122.29331 | 24 ft | 9 kts | 52° |
| 2026-04-27 11:42 | 47.51696 | -122.29317 | 23 ft | 11 kts | 346° |
| 2026-04-27 11:42 | 47.51770 | -122.29372 | 23 ft | 13 kts | 328° |
| 2026-04-27 11:42 | 47.51884 | -122.29468 | 25 ft | 23 kts | 331° |
| 2026-04-27 11:43 | 47.52029 | -122.29592 | 26 ft | 25 kts | 329° |
| 2026-04-27 11:43 | 47.52189 | -122.29720 | 26 ft | 27 kts | 333° |
| 2026-04-27 11:43 | 47.52359 | -122.29859 | 23 ft | 29 kts | 328° |
| 2026-04-27 11:43 | 47.52532 | -122.30006 | 23 ft | 27 kts | 332° |
| 2026-04-27 11:44 | 47.52701 | -122.30148 | 23 ft | 28 kts | 330° |
| 2026-04-27 11:44 | 47.52871 | -122.30287 | 23 ft | 28 kts | 331° |
| 2026-04-27 11:44 | 47.53037 | -122.30429 | 25 ft | 28 kts | 330° |
| 2026-04-27 11:44 | 47.53204 | -122.30570 | 22 ft | 28 kts | 329° |
| 2026-04-27 11:45 | 47.53372 | -122.30711 | 23 ft | 27 kts | 329° |
| 2026-04-27 11:45 | 47.53535 | -122.30853 | 23 ft | 27 kts | 330° |
| 2026-04-27 11:45 | 47.53690 | -122.30985 | 24 ft | 25 kts | 330° |
| 2026-04-27 11:45 | 47.53846 | -122.31114 | 25 ft | 24 kts | 330° |
| 2026-04-27 11:46 | 47.53992 | -122.31236 | 24 ft | 25 kts | 330° |
| 2026-04-27 11:46 | 47.54144 | -122.31365 | 24 ft | 20 kts | 331° |
| 2026-04-27 11:46 | 47.54238 | -122.31349 | 25 ft | 14 kts | 68° |
| 2026-04-27 11:46 | 47.54180 | -122.31242 | 24 ft | 15 kts | 152° |
| 2026-04-27 11:47 | 47.54061 | -122.31139 | 25 ft | 41 kts | 150° |
| 2026-04-27 11:47 | 47.53605 | -122.30758 | 23 ft | 106 kts | 150° |
| 2026-04-27 11:47 | 47.52816 | -122.30098 | 43 ft | 151 kts | 152° |
| 2026-04-27 11:47 | 47.51905 | -122.29338 | 656 ft | 149 kts | 150° |
| 2026-04-27 11:48 | 47.51004 | -122.28564 | 1292 ft | 152 kts | 151° |
| 2026-04-27 11:48 | 47.50045 | -122.27743 | 1686 ft | 169 kts | 154° |
| 2026-04-27 11:48 | 47.48951 | -122.26827 | 1981 ft | 193 kts | 154° |
| 2026-04-27 11:48 | 47.47724 | -122.25802 | 2324 ft | 218 kts | 153° |
| 2026-04-27 11:49 | 47.46331 | -122.24638 | 2821 ft | 240 kts | 153° |
| 2026-04-27 11:49 | 47.44858 | -122.23398 | 3808 ft | 241 kts | 152° |
| 2026-04-27 11:49 | 47.43374 | -122.22148 | 4650 ft | 250 kts | 152° |
| 2026-04-27 11:49 | 47.41833 | -122.20852 | 5437 ft | 260 kts | 152° |
| 2026-04-27 11:50 | 47.40346 | -122.19288 | 6298 ft | 268 kts | 133° |
| 2026-04-27 11:50 | 47.39394 | -122.16910 | 7136 ft | 274 kts | 105° |
| 2026-04-27 11:50 | 47.39266 | -122.14166 | 7993 ft | 274 kts | 78° |
| 2026-04-27 11:50 | 47.39999 | -122.11605 | 8914 ft | 272 kts | 51° |
| 2026-04-27 11:51 | 47.41413 | -122.09812 | 9835 ft | 269 kts | 25° |
| 2026-04-27 11:51 | 47.43237 | -122.09114 | 10667 ft | 269 kts | 1° |
| 2026-04-27 11:51 | 47.47138 | -122.09084 | 11538 ft | 304 kts | 359° |
| 2026-04-27 11:52 | 47.49333 | -122.09078 | 11748 ft | 326 kts | 360° |
| 2026-04-27 11:52 | 47.51640 | -122.09062 | 12283 ft | 335 kts | 360° |
| 2026-04-27 11:52 | 47.53987 | -122.09040 | 13008 ft | 339 kts | 0° |
| 2026-04-27 11:52 | 47.56352 | -122.09012 | 13784 ft | 342 kts | 0° |
| 2026-04-27 11:53 | 47.58738 | -122.08982 | 14457 ft | 344 kts | 0° |
| 2026-04-27 11:53 | 47.61138 | -122.08953 | 15117 ft | 346 kts | 360° |
| 2026-04-27 11:53 | 47.63548 | -122.08923 | 15755 ft | 348 kts | 359° |
| 2026-04-27 11:53 | 47.65980 | -122.08894 | 16394 ft | 350 kts | 359° |
| 2026-04-27 11:54 | 47.68423 | -122.08868 | 17049 ft | 352 kts | 359° |
| 2026-04-27 11:54 | 47.70879 | -122.08842 | 17710 ft | 354 kts | 359° |
| 2026-04-27 11:54 | 47.73350 | -122.08814 | 18361 ft | 356 kts | 359° |
| 2026-04-27 11:54 | 47.75837 | -122.08788 | 18924 ft | 359 kts | 359° |
| 2026-04-27 11:55 | 47.78343 | -122.08762 | 19475 ft | 362 kts | 359° |
| 2026-04-27 11:55 | 47.80868 | -122.08734 | 20017 ft | 365 kts | 359° |
| 2026-04-27 11:55 | 47.83419 | -122.08707 | 20552 ft | 368 kts | 359° |
| 2026-04-27 11:55 | 47.85987 | -122.08682 | 21076 ft | 371 kts | 359° |
| 2026-04-27 11:56 | 47.88584 | -122.08653 | 21538 ft | 375 kts | 359° |
| 2026-04-27 11:56 | 47.91205 | -122.08623 | 22035 ft | 378 kts | 359° |
| 2026-04-27 11:56 | 47.93841 | -122.08591 | 22577 ft | 380 kts | 359° |
| 2026-04-27 11:56 | 47.96493 | -122.08557 | 23085 ft | 382 kts | 360° |
| 2026-04-27 11:57 | 47.99160 | -122.08524 | 23570 ft | 385 kts | 360° |
| 2026-04-27 11:57 | 48.01850 | -122.08494 | 23990 ft | 388 kts | 360° |
| 2026-04-27 11:57 | 48.04561 | -122.08462 | 24389 ft | 391 kts | 360° |
| 2026-04-27 11:57 | 48.07289 | -122.08428 | 24786 ft | 393 kts | 360° |
| 2026-04-27 11:58 | 48.10028 | -122.08399 | 25171 ft | 396 kts | 359° |
| 2026-04-27 11:58 | 48.12794 | -122.08209 | 25522 ft | 400 kts | 6° |
| 2026-04-27 11:58 | 48.15523 | -122.07287 | 25858 ft | 405 kts | 17° |
| 2026-04-27 11:58 | 48.18115 | -122.05585 | 26216 ft | 411 kts | 27° |
| 2026-04-27 11:59 | 48.20484 | -122.03136 | 26580 ft | 417 kts | 38° |
| 2026-04-27 11:59 | 48.22650 | -122.00205 | 26947 ft | 421 kts | 39° |
| 2026-04-27 11:59 | 48.24821 | -121.97242 | 27364 ft | 422 kts | 39° |
| 2026-04-27 11:59 | 48.26997 | -121.94274 | 27782 ft | 424 kts | 39° |
| 2026-04-27 12:00 | 48.29184 | -121.91283 | 28161 ft | 426 kts | 39° |
| 2026-04-27 12:00 | 48.31378 | -121.88275 | 28521 ft | 429 kts | 39° |
| 2026-04-27 12:00 | 48.33588 | -121.85243 | 28851 ft | 431 kts | 39° |
| 2026-04-27 12:00 | 48.35800 | -121.82203 | 28994 ft | 430 kts | 39° |
| 2026-04-27 12:01 | 48.38002 | -121.79172 | 29002 ft | 428 kts | 39° |
| 2026-04-27 12:01 | 48.42390 | -121.73124 | 29006 ft | 427 kts | 39° |
| 2026-04-27 12:02 | 48.46753 | -121.67101 | 28995 ft | 424 kts | 38° |
| 2026-04-27 12:02 | 48.51099 | -121.61086 | 28982 ft | 424 kts | 39° |
| 2026-04-27 12:03 | 48.55466 | -121.55041 | 28988 ft | 427 kts | 39° |
| 2026-04-27 12:03 | 48.59830 | -121.48970 | 28985 ft | 427 kts | 39° |
| 2026-04-27 12:04 | 48.64190 | -121.42884 | 28983 ft | 427 kts | 39° |
| 2026-04-27 12:04 | 48.68546 | -121.36792 | 28984 ft | 426 kts | 39° |
| 2026-04-27 12:05 | 48.72896 | -121.30699 | 28981 ft | 426 kts | 39° |
| 2026-04-27 12:05 | 48.77242 | -121.24589 | 28981 ft | 426 kts | 39° |
| 2026-04-27 12:06 | 48.81586 | -121.18461 | 29008 ft | 426 kts | 39° |
| 2026-04-27 12:06 | 48.85923 | -121.12352 | 29020 ft | 424 kts | 39° |
| 2026-04-27 12:07 | 48.90235 | -121.06258 | 29014 ft | 423 kts | 39° |
| 2026-04-27 12:07 | 48.94532 | -121.00152 | 29006 ft | 423 kts | 39° |
| 2026-04-27 12:08 | 48.98798 | -120.94080 | 28975 ft | 423 kts | 39° |
| 2026-04-27 12:08 | 49.03096 | -120.87951 | 29012 ft | 422 kts | 39° |
| 2026-04-27 12:09 | 49.07373 | -120.81839 | 28998 ft | 421 kts | 39° |
| 2026-04-27 12:09 | 49.11636 | -120.75736 | 29015 ft | 420 kts | 39° |
| 2026-04-27 12:10 | 49.15883 | -120.69640 | 28993 ft | 419 kts | 39° |
| 2026-04-27 12:10 | 49.20124 | -120.63530 | 29017 ft | 419 kts | 39° |
| 2026-04-27 12:11 | 49.24341 | -120.57434 | 29006 ft | 417 kts | 39° |
| 2026-04-27 12:11 | 49.28551 | -120.51338 | 28996 ft | 416 kts | 39° |
| 2026-04-27 12:12 | 49.32748 | -120.45247 | 28998 ft | 415 kts | 39° |
| 2026-04-27 12:12 | 49.37304 | -120.39982 | 28988 ft | 407 kts | 24° |
| 2026-04-27 12:13 | 49.42646 | -120.37409 | 29009 ft | 402 kts | 6° |
| 2026-04-27 12:13 | 49.48226 | -120.37128 | 28996 ft | 401 kts | 0° |
| 2026-04-27 12:14 | 49.53805 | -120.36981 | 28981 ft | 401 kts | 1° |
| 2026-04-27 12:14 | 49.59390 | -120.36817 | 28977 ft | 401 kts | 1° |
| 2026-04-27 12:15 | 49.64971 | -120.36652 | 28963 ft | 401 kts | 1° |
| 2026-04-27 12:15 | 49.70517 | -120.36501 | 28950 ft | 402 kts | 0° |
| 2026-04-27 12:16 | 49.76103 | -120.36355 | 28953 ft | 402 kts | 0° |
| 2026-04-27 12:16 | 49.81704 | -120.36200 | 28955 ft | 402 kts | 1° |
| 2026-04-27 12:17 | 49.87306 | -120.36047 | 28986 ft | 402 kts | 1° |
| 2026-04-27 12:17 | 49.92898 | -120.35891 | 28960 ft | 402 kts | 1° |
| 2026-04-27 12:18 | 49.98479 | -120.35737 | 28473 ft | 401 kts | 1° |
| 2026-04-27 12:18 | 50.01283 | -120.35660 | 28199 ft | 404 kts | 1° |
| 2026-04-27 12:18 | 50.04101 | -120.35582 | 27931 ft | 405 kts | 1° |
| 2026-04-27 12:18 | 50.06914 | -120.35503 | 27673 ft | 404 kts | 1° |
| 2026-04-27 12:19 | 50.09723 | -120.35423 | 27406 ft | 403 kts | 1° |
| 2026-04-27 12:19 | 50.12514 | -120.35346 | 27144 ft | 401 kts | 1° |
| 2026-04-27 12:19 | 50.15300 | -120.35270 | 26886 ft | 399 kts | 1° |
| 2026-04-27 12:19 | 50.18072 | -120.35191 | 26622 ft | 398 kts | 1° |
| 2026-04-27 12:20 | 50.20841 | -120.35101 | 26365 ft | 397 kts | 1° |
| 2026-04-27 12:20 | 50.23583 | -120.35005 | 25904 ft | 392 kts | 1° |
| 2026-04-27 12:20 | 50.26295 | -120.34906 | 25278 ft | 388 kts | 1° |
| 2026-04-27 12:20 | 50.28984 | -120.34808 | 24678 ft | 385 kts | 1° |
| 2026-04-27 12:21 | 50.31653 | -120.34712 | 24070 ft | 382 kts | 1° |
| 2026-04-27 12:21 | 50.34304 | -120.34618 | 23453 ft | 379 kts | 1° |
| 2026-04-27 12:21 | 50.36897 | -120.34526 | 22819 ft | 375 kts | 1° |
| 2026-04-27 12:21 | 50.39485 | -120.34437 | 22277 ft | 370 kts | 1° |
| 2026-04-27 12:22 | 50.42043 | -120.34353 | 21718 ft | 365 kts | 1° |
| 2026-04-27 12:22 | 50.44569 | -120.34269 | 21198 ft | 361 kts | 1° |
| 2026-04-27 12:22 | 50.47068 | -120.34185 | 20671 ft | 357 kts | 1° |
| 2026-04-27 12:22 | 50.48741 | -120.34127 | 20350 ft | 355 kts | 1° |
| 2026-04-27 12:23 | 50.51196 | -120.34045 | 19842 ft | 351 kts | 1° |
| 2026-04-27 12:23 | 50.53633 | -120.33969 | 19338 ft | 348 kts | 0° |
| 2026-04-27 12:23 | 50.56047 | -120.33895 | 18837 ft | 346 kts | 0° |
| 2026-04-27 12:23 | 50.58443 | -120.33821 | 18314 ft | 343 kts | 0° |
| 2026-04-27 12:24 | 50.60793 | -120.33749 | 17738 ft | 341 kts | 0° |
| 2026-04-27 12:24 | 50.63151 | -120.33685 | 17224 ft | 337 kts | 0° |
| 2026-04-27 12:24 | 50.65516 | -120.33624 | 16744 ft | 345 kts | 0° |
| 2026-04-27 12:24 | 50.67922 | -120.33552 | 16266 ft | 347 kts | 0° |
| 2026-04-27 12:25 | 50.70335 | -120.33474 | 15803 ft | 346 kts | 0° |
| 2026-04-27 12:25 | 50.72742 | -120.33400 | 15353 ft | 346 kts | 0° |
| 2026-04-27 12:25 | 50.75144 | -120.33333 | 14903 ft | 345 kts | 0° |
| 2026-04-27 12:25 | 50.77543 | -120.33272 | 14457 ft | 344 kts | 358° |
| 2026-04-27 12:26 | 50.79866 | -120.33942 | 14016 ft | 340 kts | 338° |
| 2026-04-27 12:26 | 50.81843 | -120.35944 | 13556 ft | 340 kts | 316° |
| 2026-04-27 12:26 | 50.83194 | -120.38994 | 13116 ft | 341 kts | 296° |
| 2026-04-27 12:26 | 50.83888 | -120.42588 | 12713 ft | 344 kts | 282° |
| 2026-04-27 12:27 | 50.84167 | -120.46343 | 12318 ft | 343 kts | 278° |
| 2026-04-27 12:27 | 50.84427 | -120.50085 | 12024 ft | 342 kts | 278° |
| 2026-04-27 12:27 | 50.84686 | -120.53801 | 11653 ft | 336 kts | 278° |
| 2026-04-27 12:27 | 50.84937 | -120.57450 | 11130 ft | 332 kts | 278° |
| 2026-04-27 12:28 | 50.85183 | -120.61065 | 10656 ft | 327 kts | 278° |
| 2026-04-27 12:28 | 50.85418 | -120.64562 | 10524 ft | 313 kts | 278° |
| 2026-04-27 12:28 | 50.85642 | -120.67915 | 10401 ft | 300 kts | 278° |
| 2026-04-27 12:28 | 50.85856 | -120.71131 | 10314 ft | 287 kts | 278° |
| 2026-04-27 12:29 | 50.86056 | -120.74181 | 10221 ft | 271 kts | 278° |
| 2026-04-27 12:29 | 50.86244 | -120.77064 | 10104 ft | 256 kts | 278° |
| 2026-04-27 12:29 | 50.86421 | -120.79795 | 9991 ft | 243 kts | 279° |
| 2026-04-27 12:29 | 50.86595 | -120.82447 | 9509 ft | 244 kts | 277° |
| 2026-04-27 12:30 | 50.86457 | -120.85139 | 9038 ft | 249 kts | 256° |
| 2026-04-27 12:30 | 50.85658 | -120.87559 | 8578 ft | 251 kts | 233° |
| 2026-04-27 12:30 | 50.84305 | -120.89319 | 8045 ft | 256 kts | 210° |
| 2026-04-27 12:30 | 50.82606 | -120.90178 | 7515 ft | 258 kts | 195° |
| 2026-04-27 12:31 | 50.80860 | -120.90800 | 7094 ft | 253 kts | 195° |
| 2026-04-27 12:31 | 50.79170 | -120.90959 | 7023 ft | 238 kts | 170° |
| 2026-04-27 12:31 | 50.77715 | -120.89943 | 6964 ft | 224 kts | 141° |
| 2026-04-27 12:31 | 50.76744 | -120.88070 | 6726 ft | 220 kts | 114° |
| 2026-04-27 12:32 | 50.76324 | -120.85798 | 6433 ft | 212 kts | 101° |
| 2026-04-27 12:32 | 50.76007 | -120.83561 | 6126 ft | 205 kts | 101° |
| 2026-04-27 12:32 | 50.75699 | -120.81423 | 5842 ft | 194 kts | 101° |
| 2026-04-27 12:32 | 50.75405 | -120.79402 | 5565 ft | 184 kts | 101° |
| 2026-04-27 12:33 | 50.75126 | -120.77496 | 5360 ft | 170 kts | 101° |
| 2026-04-27 12:33 | 50.74856 | -120.75643 | 5098 ft | 176 kts | 102° |
| 2026-04-27 12:33 | 50.74584 | -120.73788 | 4841 ft | 176 kts | 102° |
| 2026-04-27 12:33 | 50.74309 | -120.71916 | 4597 ft | 171 kts | 102° |
| 2026-04-27 12:34 | 50.74054 | -120.70181 | 4356 ft | 156 kts | 102° |
| 2026-04-27 12:34 | 50.73813 | -120.68544 | 4131 ft | 151 kts | 102° |
| 2026-04-27 12:34 | 50.73578 | -120.66946 | 3928 ft | 149 kts | 102° |
| 2026-04-27 12:34 | 50.73345 | -120.65360 | 3722 ft | 148 kts | 102° |
| 2026-04-27 12:35 | 50.73113 | -120.63788 | 3500 ft | 147 kts | 102° |
| 2026-04-27 12:35 | 50.72882 | -120.62225 | 3265 ft | 146 kts | 102° |
| 2026-04-27 12:35 | 50.72654 | -120.60682 | 3051 ft | 143 kts | 103° |
| 2026-04-27 12:35 | 50.72429 | -120.59160 | 2827 ft | 142 kts | 103° |
| 2026-04-27 12:36 | 50.72206 | -120.57654 | 2612 ft | 140 kts | 104° |
| 2026-04-27 12:36 | 50.71985 | -120.56159 | 2415 ft | 139 kts | 103° |
| 2026-04-27 12:36 | 50.71762 | -120.54655 | 2237 ft | 139 kts | 103° |
| 2026-04-27 12:36 | 50.71545 | -120.53198 | 2063 ft | 138 kts | 103° |
| 2026-04-27 12:37 | 50.71327 | -120.51728 | 1879 ft | 137 kts | 102° |
| 2026-04-27 12:37 | 50.71111 | -120.50277 | 1697 ft | 135 kts | 102° |
| 2026-04-27 12:37 | 50.70898 | -120.48846 | 1491 ft | 133 kts | 102° |
| 2026-04-27 12:37 | 50.70687 | -120.47430 | 1309 ft | 132 kts | 102° |
| 2026-04-27 12:38 | 50.70478 | -120.46029 | 1154 ft | 129 kts | 103° |
| 2026-04-27 12:38 | 50.70303 | -120.44859 | 1140 ft | 86 kts | 103° |
| 2026-04-27 12:38 | 50.70198 | -120.44143 | 1141 ft | 57 kts | 103° |
| 2026-04-27 12:38 | 50.70115 | -120.43602 | 1140 ft | 40 kts | 104° |
| 2026-04-27 12:39 | 50.70067 | -120.43273 | 1138 ft | 19 kts | 99° |
| 2026-04-27 12:39 | 50.70120 | -120.43192 | 1141 ft | 11 kts | 12° |
| 2026-04-27 12:39 | 50.70221 | -120.43259 | 1141 ft | 18 kts | 316° |
| 2026-04-27 12:39 | 50.70268 | -120.43441 | 1141 ft | 19 kts | 278° |
| 2026-04-27 12:40 | 50.70299 | -120.43660 | 1141 ft | 22 kts | 285° |
| 2026-04-27 12:40 | 50.70340 | -120.43910 | 1142 ft | 22 kts | 283° |
| 2026-04-27 12:40 | 50.70372 | -120.44116 | 1142 ft | 13 kts | 283° |
| 2026-04-27 12:40 | 50.70406 | -120.44145 | 1139 ft | 7 kts | 41° |
| 2026-04-27 12:41 | 50.70437 | -120.44132 | 1140 ft | 2 kts | 348° |
| 2026-04-27 12:41 | 50.70462 | -120.44152 | 1141 ft | 4 kts | 334° |
| 2026-04-27 12:41 | 50.70463 | -120.44153 | 1141 ft | 0 kts | 334° |